Time;durP1;ratioP1;P1;durP2;ratioP2;P2;SDS_P1;SDS_P2;PMS_P1;PMS_P2;Temp;Humidity;BMP_temperature;BMP_pressure;BME280_temperature;BME280_humidity;BME280_pressure;Samples;Min_cycle;Max_cycle;Signal;HPM_P1;HPM_P2
2023/12/01 00:02:24;;;;;;;31.35;15.32;;;;;;;;;;5006788;28;20030;-58
2023/12/01 00:04:50;;;;;;;30.55;15.63;;;;;;;;;;5006450;28;20068;-58
2023/12/01 00:07:16;;;;;;;28.48;13.60;;;;;;;;;;5007248;28;20046;-58
2023/12/01 00:09:42;;;;;;;28.17;14.63;;;;;;;;;;5006323;28;20064;-57
2023/12/01 00:12:08;;;;;;;26.48;13.30;;;;;;;;;;5006821;28;21808;-58
2023/12/01 00:14:34;;;;;;;27.30;13.93;;;;;;;;;;5006005;28;20053;-58
2023/12/01 00:17:01;;;;;;;28.23;14.07;;;;;;;;;;5006181;28;20057;-58
2023/12/01 00:19:27;;;;;;;23.65;13.07;;;;;;;;;;5005097;28;20489;-58
2023/12/01 00:21:53;;;;;;;23.20;12.15;;;;;;;;;;5006351;28;21562;-58
2023/12/01 00:24:19;;;;;;;23.48;11.32;;;;;;;;;;5006625;28;21908;-58
2023/12/01 00:26:45;;;;;;;22.52;11.23;;;;;;;;;;5005378;28;20827;-58
2023/12/01 00:29:12;;;;;;;22.63;12.20;;;;;;;;;;5006251;28;20044;-58
2023/12/01 00:31:38;;;;;;;25.10;12.73;;;;;;;;;;5006013;28;20112;-58
2023/12/01 00:34:04;;;;;;;26.38;13.18;;;;;;;;;;5006307;28;20076;-58
2023/12/01 00:36:32;;;;;;;22.88;11.73;;;;;;;;;;5006185;28;21912;-58
2023/12/01 00:38:58;;;;;;;24.42;12.57;;;;;;;;;;5006222;28;20060;-57
2023/12/01 00:41:24;;;;;;;23.13;12.27;;;;;;;;;;5006666;28;20729;-58
2023/12/01 00:43:50;;;;;;;24.00;12.55;;;;;;;;;;5006147;28;20492;-58
2023/12/01 00:46:16;;;;;;;26.02;13.10;;;;;;;;;;5004772;28;20037;-58
2023/12/01 00:48:43;;;;;;;25.35;13.10;;;;;;;;;;5005899;28;20069;-58
2023/12/01 00:51:21;;;;;;;22.23;11.60;;;;;;;;;;5006230;28;20095;-58
2023/12/01 00:53:47;;;;;;;25.40;13.15;;;;;;;;;;5005986;28;20382;-58
2023/12/01 00:56:16;;;;;;;24.98;12.70;;;;;;;;;;5006607;28;20078;-57
2023/12/01 00:58:42;;;;;;;26.52;13.60;;;;;;;;;;5006501;28;20084;-57
2023/12/01 01:01:08;;;;;;;25.50;12.75;;;;;;;;;;5006626;28;20059;-57
2023/12/01 01:03:35;;;;;;;25.58;14.35;;;;;;;;;;5006432;28;20556;-58
2023/12/01 01:06:01;;;;;;;23.17;12.95;;;;;;;;;;5006674;28;20036;-58
2023/12/01 01:08:29;;;;;;;24.95;13.85;;;;;;;;;;5006405;28;21228;-57
2023/12/01 01:10:55;;;;;;;23.38;12.82;;;;;;;;;;5003689;28;20069;-57
2023/12/01 01:13:22;;;;;;;19.42;11.32;;;;;;;;;;5005804;28;21896;-57
2023/12/01 01:15:48;;;;;;;23.92;12.40;;;;;;;;;;5004138;28;21875;-58
2023/12/01 01:18:15;;;;;;;22.55;13.05;;;;;;;;;;5004504;28;20095;-57
2023/12/01 01:20:41;;;;;;;22.90;12.68;;;;;;;;;;5003457;28;20988;-57
2023/12/01 01:23:07;;;;;;;21.45;12.48;;;;;;;;;;5004874;28;20068;-58
2023/12/01 01:25:33;;;;;;;24.30;13.07;;;;;;;;;;5002391;28;20550;-57
2023/12/01 01:28:00;;;;;;;23.25;12.40;;;;;;;;;;5005544;28;20043;-57
2023/12/01 01:30:26;;;;;;;21.83;12.40;;;;;;;;;;5006196;28;20083;-58
2023/12/01 01:32:52;;;;;;;23.77;13.60;;;;;;;;;;5004525;28;20041;-57
2023/12/01 01:35:18;;;;;;;21.88;13.15;;;;;;;;;;5004719;28;20032;-57
2023/12/01 01:37:44;;;;;;;25.13;13.27;;;;;;;;;;5005717;28;20033;-57
2023/12/01 01:40:12;;;;;;;24.02;13.82;;;;;;;;;;5005051;28;20045;-57
2023/12/01 01:42:38;;;;;;;24.38;13.38;;;;;;;;;;5003953;28;20034;-57
2023/12/01 01:45:04;;;;;;;24.40;13.35;;;;;;;;;;5004897;28;20109;-57
2023/12/01 01:47:32;;;;;;;27.48;14.25;;;;;;;;;;5005064;28;21888;-57
2023/12/01 01:49:58;;;;;;;24.95;14.35;;;;;;;;;;5004862;28;20059;-57
2023/12/01 01:52:24;;;;;;;28.20;14.23;;;;;;;;;;5003306;28;20037;-57
2023/12/01 01:54:50;;;;;;;25.85;14.48;;;;;;;;;;5005846;28;21224;-58
2023/12/01 01:57:17;;;;;;;24.52;13.48;;;;;;;;;;5004442;28;20033;-58
2023/12/01 01:59:44;;;;;;;26.23;14.90;;;;;;;;;;5006148;28;20056;-58
2023/12/01 02:02:10;;;;;;;26.08;14.45;;;;;;;;;;4991807;28;20037;-58
2023/12/01 02:04:36;;;;;;;26.10;13.52;;;;;;;;;;5006336;28;20071;-58
2023/12/01 02:07:02;;;;;;;25.45;13.43;;;;;;;;;;5003991;28;20045;-57
2023/12/01 02:09:32;;;;;;;26.75;14.60;;;;;;;;;;5006264;28;20046;-57
2023/12/01 02:11:59;;;;;;;28.73;15.52;;;;;;;;;;5002389;28;21035;-57
2023/12/01 02:14:25;;;;;;;27.60;14.35;;;;;;;;;;5003704;28;20065;-57
2023/12/01 02:16:51;;;;;;;34.20;16.83;;;;;;;;;;5004711;28;20038;-58
2023/12/01 02:19:18;;;;;;;32.38;14.77;;;;;;;;;;5003924;28;20036;-58
2023/12/01 02:21:45;;;;;;;30.80;15.23;;;;;;;;;;5003118;28;20480;-57
2023/12/01 02:24:11;;;;;;;32.85;16.48;;;;;;;;;;5003303;28;20116;-58
2023/12/01 02:26:37;;;;;;;31.05;15.85;;;;;;;;;;5002579;28;20148;-58
2023/12/01 02:29:05;;;;;;;31.52;15.02;;;;;;;;;;5004796;28;20038;-57
2023/12/01 02:31:31;;;;;;;37.78;17.05;;;;;;;;;;5003460;28;20037;-58
2023/12/01 02:33:57;;;;;;;34.47;17.67;;;;;;;;;;5003084;28;20032;-57
2023/12/01 02:36:23;;;;;;;35.13;15.95;;;;;;;;;;5004313;28;20037;-58
2023/12/01 02:38:49;;;;;;;35.28;16.60;;;;;;;;;;5004091;28;20156;-58
2023/12/01 02:41:17;;;;;;;34.55;16.65;;;;;;;;;;5004336;28;20122;-58
2023/12/01 02:43:43;;;;;;;34.03;16.17;;;;;;;;;;5002336;28;20056;-58
2023/12/01 02:46:12;;;;;;;32.35;14.52;;;;;;;;;;5004487;28;20168;-58
2023/12/01 02:48:38;;;;;;;36.47;17.35;;;;;;;;;;5004419;28;21814;-58
2023/12/01 02:51:04;;;;;;;33.72;15.68;;;;;;;;;;5002887;28;20037;-58
2023/12/01 02:53:30;;;;;;;33.85;16.10;;;;;;;;;;5002927;28;20098;-58
2023/12/01 02:55:56;;;;;;;31.90;16.58;;;;;;;;;;5002211;28;20488;-58
2023/12/01 02:58:22;;;;;;;33.78;15.55;;;;;;;;;;5002782;28;20107;-58
2023/12/01 03:00:48;;;;;;;36.53;17.10;;;;;;;;;;5003461;28;20051;-58
2023/12/01 03:03:15;;;;;;;36.97;16.55;;;;;;;;;;5003768;28;20963;-58
2023/12/01 03:05:41;;;;;;;32.97;16.40;;;;;;;;;;5003356;28;20449;-57
2023/12/01 03:08:07;;;;;;;34.50;16.00;;;;;;;;;;5003628;28;20481;-58
2023/12/01 03:10:34;;;;;;;33.47;16.73;;;;;;;;;;5004983;28;20041;-58
2023/12/01 03:13:00;;;;;;;35.40;16.40;;;;;;;;;;5001368;28;20103;-58
2023/12/01 03:15:26;;;;;;;33.33;16.45;;;;;;;;;;5003853;28;20512;-58
2023/12/01 03:17:52;;;;;;;32.75;15.63;;;;;;;;;;5003359;28;20049;-58
2023/12/01 03:20:18;;;;;;;37.33;16.17;;;;;;;;;;5003671;28;20115;-58
2023/12/01 03:22:45;;;;;;;37.00;18.35;;;;;;;;;;5004291;28;20029;-58
2023/12/01 03:25:11;;;;;;;37.92;16.52;;;;;;;;;;5005104;28;20049;-58
2023/12/01 03:27:42;;;;;;;36.40;16.60;;;;;;;;;;5002825;28;20068;-58
2023/12/01 03:30:15;;;;;;;33.38;16.15;;;;;;;;;;5003671;28;20045;-58
2023/12/01 03:32:44;;;;;;;34.63;15.65;;;;;;;;;;5001615;28;20785;-58
2023/12/01 03:35:11;;;;;;;35.00;15.95;;;;;;;;;;5007166;28;20026;-58
2023/12/01 03:37:37;;;;;;;38.92;17.35;;;;;;;;;;5007664;28;20120;-58
2023/12/01 03:40:03;;;;;;;36.00;16.67;;;;;;;;;;5007975;28;20041;-59
2023/12/01 03:42:29;;;;;;;36.42;16.58;;;;;;;;;;5007528;28;20100;-59
2023/12/01 03:44:55;;;;;;;29.80;14.85;;;;;;;;;;5007064;28;20048;-60
2023/12/01 03:47:21;;;;;;;34.05;15.98;;;;;;;;;;5006885;28;20063;-61
2023/12/01 03:49:47;;;;;;;31.17;14.93;;;;;;;;;;5007307;28;20192;-61
2023/12/01 03:52:13;;;;;;;35.50;17.02;;;;;;;;;;5008410;28;20049;-61
2023/12/01 03:54:39;;;;;;;30.65;15.60;;;;;;;;;;5006916;28;20036;-61
2023/12/01 03:57:05;;;;;;;34.10;16.27;;;;;;;;;;5006377;28;20037;-61
2023/12/01 03:59:31;;;;;;;34.92;16.15;;;;;;;;;;4994573;28;20397;-61
2023/12/01 04:01:57;;;;;;;33.00;15.38;;;;;;;;;;5007916;28;21815;-61
2023/12/01 04:04:23;;;;;;;32.72;16.38;;;;;;;;;;5007301;28;20511;-61
2023/12/01 04:06:49;;;;;;;34.28;15.75;;;;;;;;;;5007636;28;20021;-61
2023/12/01 04:09:16;;;;;;;31.10;15.75;;;;;;;;;;5006453;28;20041;-61
2023/12/01 04:11:42;;;;;;;32.15;16.00;;;;;;;;;;5007431;28;20052;-61
2023/12/01 04:14:08;;;;;;;30.42;15.00;;;;;;;;;;5005453;28;20978;-61
2023/12/01 04:16:34;;;;;;;32.67;15.80;;;;;;;;;;5005972;28;20482;-61
2023/12/01 04:19:00;;;;;;;34.83;16.77;;;;;;;;;;5007101;28;20504;-61
2023/12/01 04:21:27;;;;;;;32.08;15.18;;;;;;;;;;5004483;28;20048;-61
2023/12/01 04:23:53;;;;;;;34.60;15.40;;;;;;;;;;5006469;28;20029;-61
2023/12/01 04:26:19;;;;;;;33.80;15.23;;;;;;;;;;5007924;28;20091;-61
2023/12/01 04:28:45;;;;;;;30.10;14.52;;;;;;;;;;5005563;28;20417;-59
2023/12/01 04:31:11;;;;;;;33.03;15.38;;;;;;;;;;5006929;28;20119;-59
2023/12/01 04:33:37;;;;;;;32.63;15.23;;;;;;;;;;5006270;28;21573;-59
2023/12/01 04:36:06;;;;;;;34.50;15.63;;;;;;;;;;5007200;28;20878;-59
2023/12/01 04:38:33;;;;;;;31.17;14.70;;;;;;;;;;5005633;28;20045;-59
2023/12/01 04:40:59;;;;;;;30.48;13.93;;;;;;;;;;5005687;28;20029;-59
2023/12/01 04:43:27;;;;;;;30.90;14.77;;;;;;;;;;5004482;28;20038;-59
2023/12/01 04:45:53;;;;;;;27.83;14.02;;;;;;;;;;5004964;28;20049;-59
2023/12/01 04:48:20;;;;;;;31.42;13.98;;;;;;;;;;5005128;28;20053;-59
2023/12/01 04:50:47;;;;;;;31.13;14.05;;;;;;;;;;5006176;28;20059;-60
2023/12/01 04:53:13;;;;;;;27.25;12.70;;;;;;;;;;5006032;28;20033;-60
2023/12/01 04:55:39;;;;;;;30.30;14.93;;;;;;;;;;5005200;28;20037;-59
2023/12/01 04:58:05;;;;;;;30.23;13.43;;;;;;;;;;5006962;28;20071;-61
2023/12/01 05:00:31;;;;;;;31.30;14.55;;;;;;;;;;5006310;28;20037;-61
2023/12/01 05:03:07;;;;;;;29.25;14.35;;;;;;;;;;5005683;28;20507;-61
2023/12/01 05:05:34;;;;;;;31.30;14.70;;;;;;;;;;5004653;28;20620;-61
2023/12/01 05:08:01;;;;;;;28.98;14.73;;;;;;;;;;5006226;28;20523;-61
2023/12/01 05:10:28;;;;;;;27.52;13.40;;;;;;;;;;5005620;28;20057;-61
2023/12/01 05:12:55;;;;;;;27.63;13.95;;;;;;;;;;5005721;28;20030;-61
2023/12/01 05:15:24;;;;;;;30.25;14.52;;;;;;;;;;4993274;28;20416;-61
2023/12/01 05:17:51;;;;;;;29.88;13.60;;;;;;;;;;5004705;28;20090;-61
2023/12/01 05:20:18;;;;;;;31.13;14.70;;;;;;;;;;5002421;28;21926;-61
2023/12/01 05:22:45;;;;;;;30.73;13.88;;;;;;;;;;5007606;28;20032;-61
2023/12/01 05:25:13;;;;;;;28.90;13.70;;;;;;;;;;5004923;28;20594;-61
2023/12/01 05:27:40;;;;;;;28.70;13.45;;;;;;;;;;5007055;28;20041;-61
2023/12/01 05:30:07;;;;;;;28.45;13.48;;;;;;;;;;5004160;28;20024;-62
2023/12/01 05:32:33;;;;;;;29.63;15.32;;;;;;;;;;5006282;28;20052;-62
2023/12/01 05:34:59;;;;;;;30.90;14.75;;;;;;;;;;5006250;28;20118;-61
2023/12/01 05:37:25;;;;;;;31.15;15.52;;;;;;;;;;5005757;28;20512;-61
2023/12/01 05:39:51;;;;;;;30.50;14.98;;;;;;;;;;5004247;28;20570;-62
2023/12/01 05:42:18;;;;;;;26.13;12.88;;;;;;;;;;5005083;28;21412;-62
2023/12/01 05:44:44;;;;;;;31.38;14.60;;;;;;;;;;5005282;28;20056;-61
2023/12/01 05:47:10;;;;;;;28.67;13.38;;;;;;;;;;5005193;28;20046;-61
2023/12/01 05:49:37;;;;;;;27.42;13.93;;;;;;;;;;5004886;28;20092;-62
2023/12/01 05:52:03;;;;;;;26.05;13.43;;;;;;;;;;5004031;28;20048;-62
2023/12/01 05:54:29;;;;;;;28.13;13.57;;;;;;;;;;5004724;28;20126;-61
2023/12/01 05:56:55;;;;;;;27.20;13.57;;;;;;;;;;5004419;28;20087;-61
2023/12/01 05:59:21;;;;;;;30.75;14.90;;;;;;;;;;5005601;28;20029;-62
2023/12/01 06:01:47;;;;;;;29.40;13.48;;;;;;;;;;5003545;28;20025;-61
2023/12/01 06:04:13;;;;;;;29.58;14.27;;;;;;;;;;5005041;28;20205;-61
2023/12/01 06:06:40;;;;;;;26.60;14.20;;;;;;;;;;5003854;28;20626;-62
2023/12/01 06:09:15;;;;;;;28.25;14.32;;;;;;;;;;5004430;28;21229;-62
2023/12/01 06:11:42;;;;;;;30.98;13.85;;;;;;;;;;5004131;28;20151;-62
2023/12/01 06:14:08;;;;;;;26.83;12.95;;;;;;;;;;5005627;28;20588;-61
2023/12/01 06:16:35;;;;;;;28.13;13.95;;;;;;;;;;5002427;28;20123;-62
2023/12/01 06:19:01;;;;;;;25.13;12.65;;;;;;;;;;5004330;28;20037;-61
2023/12/01 06:21:27;;;;;;;29.70;13.75;;;;;;;;;;5002042;28;20147;-61
2023/12/01 06:23:53;;;;;;;28.98;13.27;;;;;;;;;;5004150;28;20041;-63
2023/12/01 06:26:19;;;;;;;26.77;14.23;;;;;;;;;;5002967;28;20048;-62
2023/12/01 06:28:46;;;;;;;30.55;14.32;;;;;;;;;;5001579;28;20038;-62
2023/12/01 06:31:12;;;;;;;29.73;14.52;;;;;;;;;;5003773;28;20029;-62
2023/12/01 06:33:38;;;;;;;30.00;14.77;;;;;;;;;;5003972;28;20033;-62
2023/12/01 06:36:04;;;;;;;29.35;13.23;;;;;;;;;;5005516;28;20094;-62
2023/12/01 06:38:30;;;;;;;30.27;14.43;;;;;;;;;;5004519;28;20048;-62
2023/12/01 06:40:56;;;;;;;27.27;13.40;;;;;;;;;;5002925;28;20124;-62
2023/12/01 06:43:22;;;;;;;29.98;14.15;;;;;;;;;;5003595;28;20144;-62
2023/12/01 06:45:48;;;;;;;29.40;14.20;;;;;;;;;;5003428;28;20064;-62
2023/12/01 06:48:14;;;;;;;28.48;13.43;;;;;;;;;;5004548;28;20156;-62
2023/12/01 06:50:40;;;;;;;27.75;14.05;;;;;;;;;;5003611;28;20026;-62
2023/12/01 06:53:06;;;;;;;26.92;13.40;;;;;;;;;;5003539;28;20036;-62
2023/12/01 06:55:33;;;;;;;30.15;13.60;;;;;;;;;;5004522;28;20041;-62
2023/12/01 06:57:59;;;;;;;24.65;12.10;;;;;;;;;;5003317;28;20034;-62
2023/12/01 07:02:56;;;;;;;28.60;13.68;;;;;;;;;;5003520;28;20132;-61
2023/12/01 07:05:22;;;;;;;27.65;13.43;;;;;;;;;;5003039;28;20041;-61
2023/12/01 07:07:48;;;;;;;30.70;12.95;;;;;;;;;;5003590;28;20069;-61
2023/12/01 07:10:15;;;;;;;28.33;14.57;;;;;;;;;;5004329;28;20045;-61
2023/12/01 07:12:41;;;;;;;26.90;13.35;;;;;;;;;;5003485;28;20455;-61
2023/12/01 07:15:11;;;;;;;28.55;14.10;;;;;;;;;;5003114;28;20389;-61
2023/12/01 07:17:40;;;;;;;29.42;14.75;;;;;;;;;;5002847;28;20037;-61
2023/12/01 07:20:15;;;;;;;26.45;13.02;;;;;;;;;;5001028;28;20119;-61
2023/12/01 07:22:42;;;;;;;27.02;13.40;;;;;;;;;;5003541;28;20203;-61
2023/12/01 07:25:10;;;;;;;27.88;13.98;;;;;;;;;;5002880;28;20037;-62
2023/12/01 07:27:39;;;;;;;30.30;13.43;;;;;;;;;;5003634;28;20124;-62
2023/12/01 07:30:06;;;;;;;26.50;12.52;;;;;;;;;;5002537;28;20673;-61
2023/12/01 07:32:32;;;;;;;27.65;13.98;;;;;;;;;;5002727;28;20029;-61
2023/12/01 07:34:58;;;;;;;26.48;11.23;;;;;;;;;;5002857;28;20644;-62
2023/12/01 07:37:24;;;;;;;29.10;12.43;;;;;;;;;;5002167;28;20052;-62
2023/12/01 07:39:50;;;;;;;27.50;11.23;;;;;;;;;;5003578;28;20037;-62
2023/12/01 07:42:17;;;;;;;23.08;11.13;;;;;;;;;;5003644;28;20037;-62
2023/12/01 07:44:44;;;;;;;25.45;11.95;;;;;;;;;;5003075;28;20041;-62
2023/12/01 07:47:11;;;;;;;23.73;11.45;;;;;;;;;;5003084;28;20110;-62
2023/12/01 07:49:38;;;;;;;25.80;11.88;;;;;;;;;;5002001;28;20046;-61
2023/12/01 07:52:07;;;;;;;25.02;11.98;;;;;;;;;;5003446;28;20045;-62
2023/12/01 07:54:35;;;;;;;22.52;9.82;;;;;;;;;;5003131;28;20045;-62
2023/12/01 07:57:01;;;;;;;25.83;12.15;;;;;;;;;;5002755;28;20079;-62
2023/12/01 07:59:27;;;;;;;28.17;13.80;;;;;;;;;;5001488;28;20060;-62
2023/12/01 08:01:53;;;;;;;27.35;12.48;;;;;;;;;;5003136;28;20123;-62
2023/12/01 08:04:20;;;;;;;28.95;13.20;;;;;;;;;;5002087;28;20045;-62
2023/12/01 08:06:46;;;;;;;30.50;13.25;;;;;;;;;;5003992;28;20459;-62
2023/12/01 08:09:16;;;;;;;31.33;13.98;;;;;;;;;;5001256;28;20995;-62
2023/12/01 08:11:43;;;;;;;28.88;13.75;;;;;;;;;;5002323;28;20041;-62
2023/12/01 08:14:09;;;;;;;29.90;14.80;;;;;;;;;;5001191;28;20386;-62
2023/12/01 08:16:36;;;;;;;32.17;14.95;;;;;;;;;;5002920;28;20111;-62
2023/12/01 08:19:03;;;;;;;35.75;16.58;;;;;;;;;;5003178;28;21293;-62
2023/12/01 08:21:31;;;;;;;32.67;16.02;;;;;;;;;;5000320;28;20094;-62
2023/12/01 08:23:57;;;;;;;33.15;14.40;;;;;;;;;;5007215;28;20037;-62
2023/12/01 08:26:23;;;;;;;32.53;15.95;;;;;;;;;;5005423;28;20048;-62
2023/12/01 08:28:49;;;;;;;31.27;15.23;;;;;;;;;;5005084;28;20048;-62
2023/12/01 08:31:16;;;;;;;32.20;14.98;;;;;;;;;;5007351;28;20041;-62
2023/12/01 08:33:43;;;;;;;32.80;15.30;;;;;;;;;;5007682;28;20037;-62
2023/12/01 08:36:09;;;;;;;30.85;14.95;;;;;;;;;;5008300;28;20037;-62
2023/12/01 08:38:35;;;;;;;27.92;13.13;;;;;;;;;;5007867;28;20500;-62
2023/12/01 08:41:01;;;;;;;29.25;14.98;;;;;;;;;;5006737;28;20057;-61
2023/12/01 08:43:28;;;;;;;31.88;16.48;;;;;;;;;;5010575;28;20041;-61
2023/12/01 08:45:54;;;;;;;31.27;15.02;;;;;;;;;;5008909;28;20034;-61
2023/12/01 08:48:20;;;;;;;31.42;15.80;;;;;;;;;;5007747;28;20075;-61
2023/12/01 08:50:46;;;;;;;29.70;13.27;;;;;;;;;;5008748;28;20528;-62
2023/12/01 08:53:12;;;;;;;27.42;14.05;;;;;;;;;;5007214;28;20290;-61
2023/12/01 08:55:38;;;;;;;31.02;15.60;;;;;;;;;;5003949;28;20045;-61
2023/12/01 08:58:04;;;;;;;26.75;13.82;;;;;;;;;;5007102;28;20041;-61
2023/12/01 09:00:30;;;;;;;30.98;15.30;;;;;;;;;;5007446;28;20795;-61
2023/12/01 09:02:57;;;;;;;26.35;13.65;;;;;;;;;;5006108;28;20041;-61
2023/12/01 09:05:24;;;;;;;26.73;13.57;;;;;;;;;;5006542;28;20038;-62
2023/12/01 09:07:50;;;;;;;26.45;13.63;;;;;;;;;;5007846;28;20036;-61
2023/12/01 09:10:19;;;;;;;25.80;13.77;;;;;;;;;;5006235;28;20030;-61
2023/12/01 09:12:45;;;;;;;28.83;14.43;;;;;;;;;;5005428;28;20041;-61
2023/12/01 09:15:12;;;;;;;27.98;14.20;;;;;;;;;;5004817;28;20049;-61
2023/12/01 09:17:38;;;;;;;27.27;14.00;;;;;;;;;;5007200;28;20036;-61
2023/12/01 09:20:04;;;;;;;25.00;13.43;;;;;;;;;;5004101;28;20459;-62
2023/12/01 09:22:30;;;;;;;24.95;12.68;;;;;;;;;;5005584;28;20041;-61
2023/12/01 09:24:56;;;;;;;25.45;13.50;;;;;;;;;;5005982;28;20043;-61
2023/12/01 09:27:24;;;;;;;21.98;12.52;;;;;;;;;;5007076;28;20038;-61
2023/12/01 09:29:50;;;;;;;23.73;13.57;;;;;;;;;;5006022;28;20041;-61
2023/12/01 09:32:19;;;;;;;21.33;12.18;;;;;;;;;;5007159;28;20041;-61
2023/12/01 09:34:45;;;;;;;22.67;12.48;;;;;;;;;;5005380;28;20033;-61
2023/12/01 09:37:12;;;;;;;22.05;12.20;;;;;;;;;;5004930;28;20075;-61
2023/12/01 09:39:38;;;;;;;20.80;11.85;;;;;;;;;;5005646;28;20029;-61
2023/12/01 09:42:09;;;;;;;21.40;11.85;;;;;;;;;;5006104;28;20036;-61
2023/12/01 09:44:36;;;;;;;20.52;12.05;;;;;;;;;;5005381;28;20068;-60
2023/12/01 09:47:04;;;;;;;19.70;11.63;;;;;;;;;;5006131;28;20045;-61
2023/12/01 09:49:34;;;;;;;17.85;10.57;;;;;;;;;;5004262;28;20044;-61
2023/12/01 09:52:03;;;;;;;21.00;11.85;;;;;;;;;;5003676;28;20951;-60
2023/12/01 09:54:30;;;;;;;19.13;11.00;;;;;;;;;;5003039;28;20032;-60
2023/12/01 09:57:01;;;;;;;17.95;10.88;;;;;;;;;;5004938;28;21253;-61
2023/12/01 09:59:27;;;;;;;19.33;11.27;;;;;;;;;;5004615;28;20029;-60
2023/12/01 10:01:53;;;;;;;19.17;11.65;;;;;;;;;;5003031;28;20040;-60
2023/12/01 10:04:20;;;;;;;21.90;13.35;;;;;;;;;;5003538;28;20680;-60
2023/12/01 10:06:46;;;;;;;19.45;11.88;;;;;;;;;;5005493;28;20596;-60
2023/12/01 10:09:12;;;;;;;19.30;11.05;;;;;;;;;;5003140;28;20082;-60
2023/12/01 10:11:39;;;;;;;18.98;11.00;;;;;;;;;;5003939;28;20041;-60
2023/12/01 10:14:08;;;;;;;19.65;11.43;;;;;;;;;;5005195;28;20167;-60
2023/12/01 10:16:36;;;;;;;20.52;11.77;;;;;;;;;;5004482;28;20029;-60
2023/12/01 10:19:04;;;;;;;20.08;11.15;;;;;;;;;;5004824;28;20045;-60
2023/12/01 10:21:43;;;;;;;18.00;11.07;;;;;;;;;;5003740;28;20166;-60
2023/12/01 10:24:16;;;;;;;20.27;11.38;;;;;;;;;;5005522;28;20064;-60
2023/12/01 10:26:44;;;;;;;20.20;10.82;;;;;;;;;;5002786;28;20034;-60
2023/12/01 10:29:23;;;;;;;19.42;11.63;;;;;;;;;;5004972;28;21285;-60
2023/12/01 10:31:50;;;;;;;19.50;10.88;;;;;;;;;;5002370;28;20118;-60
2023/12/01 10:34:16;;;;;;;18.77;11.13;;;;;;;;;;5003479;28;20032;-60
2023/12/01 10:36:43;;;;;;;19.73;10.05;;;;;;;;;;5003202;28;20033;-60
2023/12/01 10:39:10;;;;;;;17.60;10.70;;;;;;;;;;5002971;28;20510;-60
2023/12/01 10:41:39;;;;;;;19.65;11.18;;;;;;;;;;5004458;28;20025;-60
2023/12/01 10:44:06;;;;;;;19.85;11.75;;;;;;;;;;5002488;28;20041;-60
2023/12/01 10:46:32;;;;;;;21.08;11.90;;;;;;;;;;5002974;28;20504;-60
2023/12/01 10:49:00;;;;;;;19.08;10.73;;;;;;;;;;5002453;28;20045;-59
2023/12/01 10:51:27;;;;;;;18.67;11.20;;;;;;;;;;5003705;28;20087;-60
2023/12/01 10:53:55;;;;;;;22.00;12.18;;;;;;;;;;5003147;28;20083;-60
2023/12/01 10:56:24;;;;;;;21.40;12.27;;;;;;;;;;5000738;28;20124;-60
2023/12/01 10:58:52;;;;;;;20.33;10.88;;;;;;;;;;4996390;28;20090;-60
2023/12/01 11:01:19;;;;;;;21.90;11.65;;;;;;;;;;4996074;28;20064;-60
2023/12/01 11:03:46;;;;;;;20.52;12.27;;;;;;;;;;4999804;28;20126;-60
2023/12/01 11:06:18;;;;;;;22.75;11.35;;;;;;;;;;4999051;28;20040;-60
2023/12/01 11:08:49;;;;;;;20.85;11.40;;;;;;;;;;4998754;28;20052;-60
2023/12/01 11:11:22;;;;;;;20.33;11.38;;;;;;;;;;4998876;28;20123;-59
2023/12/01 11:13:48;;;;;;;20.38;11.73;;;;;;;;;;4999355;28;20037;-60
2023/12/01 11:16:14;;;;;;;20.73;11.98;;;;;;;;;;4998566;28;21212;-59
2023/12/01 11:18:44;;;;;;;20.85;11.48;;;;;;;;;;4999472;28;21779;-59
2023/12/01 11:21:10;;;;;;;18.30;10.48;;;;;;;;;;4998198;28;20044;-59
2023/12/01 11:23:36;;;;;;;19.92;11.23;;;;;;;;;;4999005;28;20045;-59
2023/12/01 11:26:05;;;;;;;19.02;11.25;;;;;;;;;;4997024;28;20805;-59
2023/12/01 11:31:08;;;;;;;19.40;11.00;;;;;;;;;;4999847;28;20041;-59
2023/12/01 11:33:46;;;;;;;19.52;11.52;;;;;;;;;;4998934;28;21211;-61
2023/12/01 11:36:27;;;;;;;20.45;11.27;;;;;;;;;;4997173;28;20029;-59
2023/12/01 11:39:16;;;;;;;19.98;10.82;;;;;;;;;;4996480;28;20037;-59
2023/12/01 11:41:42;;;;;;;19.65;11.10;;;;;;;;;;4994642;28;20022;-59
2023/12/01 11:44:29;;;;;;;19.05;10.30;;;;;;;;;;4997880;28;20044;-59
2023/12/01 11:46:56;;;;;;;19.27;10.73;;;;;;;;;;4997989;28;20040;-59
2023/12/01 11:49:23;;;;;;;19.15;11.23;;;;;;;;;;4996800;28;20033;-59
2023/12/01 11:51:49;;;;;;;19.60;11.13;;;;;;;;;;4997222;28;20033;-59
2023/12/01 11:54:15;;;;;;;20.13;11.63;;;;;;;;;;5001342;28;20822;-59
2023/12/01 11:56:46;;;;;;;18.60;10.48;;;;;;;;;;4998150;28;20048;-59
2023/12/01 11:59:12;;;;;;;19.92;10.75;;;;;;;;;;5000027;28;20089;-59
2023/12/01 12:01:38;;;;;;;17.27;10.50;;;;;;;;;;4996215;28;20095;-59
2023/12/01 12:04:05;;;;;;;20.83;11.52;;;;;;;;;;4996005;28;20037;-59
2023/12/01 12:06:32;;;;;;;19.92;10.85;;;;;;;;;;5000337;28;20032;-59
2023/12/01 12:09:06;;;;;;;21.38;10.93;;;;;;;;;;4997820;28;20231;-59
2023/12/01 12:11:36;;;;;;;22.52;11.77;;;;;;;;;;4999282;28;20025;-59
2023/12/01 12:14:04;;;;;;;19.98;10.60;;;;;;;;;;4997982;28;20033;-59
2023/12/01 12:16:30;;;;;;;20.60;11.95;;;;;;;;;;4998041;28;20041;-59
2023/12/01 12:18:57;;;;;;;22.05;11.80;;;;;;;;;;4997703;28;20030;-59
2023/12/01 12:21:23;;;;;;;20.45;11.43;;;;;;;;;;4997280;28;20045;-59
2023/12/01 12:23:50;;;;;;;22.67;11.82;;;;;;;;;;4998816;28;20108;-58
2023/12/01 12:26:21;;;;;;;21.27;12.23;;;;;;;;;;4999713;28;20049;-59
2023/12/01 12:28:48;;;;;;;21.67;11.68;;;;;;;;;;5001285;28;20048;-58
2023/12/01 12:31:15;;;;;;;21.10;12.00;;;;;;;;;;5005603;28;21135;-58
2023/12/01 12:33:41;;;;;;;20.85;11.43;;;;;;;;;;4995804;28;20630;-58
2023/12/01 12:36:07;;;;;;;22.75;11.02;;;;;;;;;;4999938;28;20661;-58
2023/12/01 12:38:33;;;;;;;22.58;11.43;;;;;;;;;;4998534;28;20417;-58
2023/12/01 12:41:01;;;;;;;21.52;12.50;;;;;;;;;;4998307;28;20045;-59
2023/12/01 12:43:27;;;;;;;21.13;11.98;;;;;;;;;;4997007;28;20049;-58
2023/12/01 12:45:54;;;;;;;20.48;10.55;;;;;;;;;;4998250;28;20041;-59
2023/12/01 12:48:27;;;;;;;21.73;12.30;;;;;;;;;;4997181;28;20033;-58
2023/12/01 12:50:53;;;;;;;20.50;11.50;;;;;;;;;;5002247;28;20044;-58
2023/12/01 12:53:19;;;;;;;20.70;12.40;;;;;;;;;;4997165;28;20037;-59
2023/12/01 12:55:46;;;;;;;21.85;12.20;;;;;;;;;;4995164;28;21025;-59
2023/12/01 12:58:12;;;;;;;20.40;11.50;;;;;;;;;;5003063;28;20037;-59
2023/12/01 13:00:38;;;;;;;23.08;11.55;;;;;;;;;;5003532;28;20029;-59
2023/12/01 13:03:04;;;;;;;18.45;11.27;;;;;;;;;;5003505;28;20048;-59
2023/12/01 13:05:30;;;;;;;22.65;11.13;;;;;;;;;;5005786;28;20033;-58
2023/12/01 13:07:56;;;;;;;20.13;10.45;;;;;;;;;;5002688;28;21585;-59
2023/12/01 13:10:22;;;;;;;21.95;12.20;;;;;;;;;;5004627;28;20054;-59
2023/12/01 13:12:48;;;;;;;19.70;11.02;;;;;;;;;;5002592;28;20052;-59
2023/12/01 13:15:14;;;;;;;19.50;11.07;;;;;;;;;;5002129;28;20058;-58
2023/12/01 13:17:41;;;;;;;19.77;10.82;;;;;;;;;;5002146;28;20085;-59
2023/12/01 13:20:07;;;;;;;21.95;11.63;;;;;;;;;;5001337;28;20195;-58
2023/12/01 13:22:33;;;;;;;22.35;11.57;;;;;;;;;;5003557;28;20479;-59
2023/12/01 13:24:59;;;;;;;19.42;10.38;;;;;;;;;;5003000;28;20041;-59
2023/12/01 13:27:25;;;;;;;19.60;11.32;;;;;;;;;;5002521;28;20037;-59
2023/12/01 13:29:51;;;;;;;20.40;11.68;;;;;;;;;;5003906;28;20080;-59
2023/12/01 13:32:17;;;;;;;20.90;11.75;;;;;;;;;;5004272;28;20037;-58
2023/12/01 13:34:43;;;;;;;19.52;10.88;;;;;;;;;;5001843;28;20041;-58
2023/12/01 13:37:11;;;;;;;21.08;11.60;;;;;;;;;;5003573;28;20038;-58
2023/12/01 13:39:37;;;;;;;19.20;11.15;;;;;;;;;;5004132;28;20033;-59
2023/12/01 13:42:03;;;;;;;23.08;11.50;;;;;;;;;;5002823;28;20039;-58
2023/12/01 13:44:30;;;;;;;22.52;11.82;;;;;;;;;;5002981;28;20037;-58
2023/12/01 13:46:56;;;;;;;19.95;10.73;;;;;;;;;;5005388;28;20051;-58
2023/12/01 13:49:22;;;;;;;20.73;10.50;;;;;;;;;;5002814;28;20051;-58
2023/12/01 13:51:48;;;;;;;18.92;10.40;;;;;;;;;;5004017;28;20033;-58
2023/12/01 13:54:14;;;;;;;18.90;10.82;;;;;;;;;;5001613;28;20045;-58
2023/12/01 13:56:40;;;;;;;18.88;10.90;;;;;;;;;;5003628;28;20232;-58
2023/12/01 13:59:06;;;;;;;19.88;10.52;;;;;;;;;;5002721;28;20149;-58
2023/12/01 14:01:32;;;;;;;23.67;11.82;;;;;;;;;;5004393;28;20045;-58
2023/12/01 14:03:59;;;;;;;20.60;11.00;;;;;;;;;;5002896;28;20064;-58
2023/12/01 14:06:25;;;;;;;21.23;11.52;;;;;;;;;;5005276;28;20057;-58
2023/12/01 14:08:51;;;;;;;20.33;10.55;;;;;;;;;;5003219;28;20049;-58
2023/12/01 14:11:17;;;;;;;19.55;10.63;;;;;;;;;;5002662;28;20563;-58
2023/12/01 14:13:43;;;;;;;20.63;11.18;;;;;;;;;;5003055;28;20042;-58
2023/12/01 14:16:11;;;;;;;19.88;10.80;;;;;;;;;;5002045;28;20223;-58
2023/12/01 14:18:37;;;;;;;20.08;10.48;;;;;;;;;;5001006;28;20033;-58
2023/12/01 14:21:03;;;;;;;19.55;10.35;;;;;;;;;;5003699;28;20060;-58